Terminal Aerodrome Forecast
Issued by NWS Cleveland, OH

Home | Current Version | Previous Version | Text Only | Print | Product List | Glossary On
Versions: 1 2 3 4 5 6 7 8 9 10 11 12 13 14 15 16 17 18 19
000
FTUS41 KCLE 231739
TAFCAK
TAF
KCAK 231739Z 2318/2418 31007KT P6SM BKN040
     FM231930 31007KT P6SM SCT050
     FM240000 VRB03KT P6SM SCT250
     FM240900 15003KT 4SM BR BKN250
     FM241300 21007KT P6SM SCT100 BKN250=

USA.gov is the U.S. government's official web portal to all federal, state and local government web resources and services.